Time;durP1;ratioP1;P1;durP2;ratioP2;P2;SDS_P1;SDS_P2;PMS_P1;PMS_P2;Temp;Humidity;BMP_temperature;BMP_pressure;BME280_temperature;BME280_humidity;BME280_pressure;Samples;Min_cycle;Max_cycle;Signal;HPM_P1;HPM_P2
2021/12/17 00:01:08;;;;;;;12.57;6.82;;;8.20;99.90;;;;;;4800549;29;20049;-85
2021/12/17 00:03:49;;;;;;;13.32;6.35;;;8.20;99.90;;;;;;4823601;29;20084;-85
2021/12/17 00:06:41;;;;;;;9.23;4.28;;;8.20;99.90;;;;;;4808143;29;20445;-81
2021/12/17 00:09:04;;;;;;;12.95;6.28;;;8.20;99.90;;;;;;4821792;29;20073;-82
2021/12/17 00:11:30;;;;;;;10.18;5.15;;;8.20;99.90;;;;;;4802899;29;20896;-84
2021/12/17 00:13:57;;;;;;;12.95;6.10;;;8.10;99.90;;;;;;4794326;29;20046;-83
2021/12/17 00:16:26;;;;;;;12.25;6.57;;;8.20;99.90;;;;;;4813515;29;20046;-85
2021/12/17 00:48:59;;;;;;;12.27;6.00;;;8.10;99.90;;;;;;4821840;29;20046;-85
2021/12/17 00:54:21;;;;;;;11.13;5.85;;;8.00;99.90;;;;;;4819060;29;20068;-77
2021/12/17 00:56:52;;;;;;;13.13;6.40;;;8.00;99.90;;;;;;4814126;29;20093;-77
2021/12/17 00:59:18;;;;;;;13.20;7.25;;;8.00;99.90;;;;;;4825992;29;20107;-78
2021/12/17 01:01:45;;;;;;;9.65;5.03;;;8.00;99.90;;;;;;4810530;29;20073;-85
2021/12/17 01:04:11;;;;;;;9.43;4.60;;;8.00;99.90;;;;;;4810289;29;20037;-82
2021/12/17 01:06:38;;;;;;;9.63;4.85;;;8.00;99.90;;;;;;4810352;29;20057;-84
2021/12/17 01:09:04;;;;;;;;;;;8.00;99.90;;;;;;4782834;29;20137;-86
2021/12/17 01:11:30;;;;;;;10.85;6.13;;;8.00;99.90;;;;;;4815122;29;20309;-86
2021/12/17 01:13:56;;;;;;;9.80;4.93;;;8.00;99.90;;;;;;4807645;29;20137;-85
2021/12/17 01:16:22;;;;;;;9.02;5.03;;;7.90;99.90;;;;;;4819148;29;20164;-86
2021/12/17 01:19:03;;;;;;;7.60;4.20;;;7.90;99.90;;;;;;4801868;29;20054;-89
2021/12/17 01:24:56;;;;;;;5.78;3.47;;;7.80;99.90;;;;;;4808431;29;20058;-87
2021/12/17 01:35:22;;;;;;;4.15;2.50;;;7.90;99.90;;;;;;4825701;29;20050;-87
2021/12/17 01:43:07;;;;;;;3.38;1.92;;;7.80;99.90;;;;;;4813227;29;20049;-86
2021/12/17 01:45:37;;;;;;;4.00;2.10;;;7.80;99.90;;;;;;4814000;29;20057;-87
2021/12/17 01:48:09;;;;;;;2.95;1.60;;;7.90;99.90;;;;;;4808324;29;20046;-86
2021/12/17 01:56:38;;;;;;;2.53;1.45;;;7.80;99.90;;;;;;4830352;29;20060;-86
2021/12/17 01:59:24;;;;;;;1.95;1.30;;;7.80;99.90;;;;;;4805888;29;20143;-85
2021/12/17 02:01:59;;;;;;;3.17;1.80;;;7.90;99.90;;;;;;4794004;29;20054;-84
2021/12/17 02:04:25;;;;;;;2.80;1.67;;;7.90;99.90;;;;;;4806838;29;20513;-85
2021/12/17 02:06:50;;;;;;;3.55;1.95;;;7.90;99.90;;;;;;4781341;29;20185;-85
2021/12/17 02:10:12;;;;;;;2.22;1.40;;;7.90;99.90;;;;;;4835090;29;20053;-85
2021/12/17 02:29:46;;;;;;;1.85;1.15;;;7.90;99.90;;;;;;4824544;29;20137;-87
2021/12/17 02:32:12;;;;;;;2.28;1.30;;;7.90;99.90;;;;;;4810021;29;20133;-85
2021/12/17 02:37:22;;;;;;;2.30;1.35;;;7.90;99.90;;;;;;4823679;29;20408;-80
2021/12/17 02:47:56;;;;;;;4.13;2.42;;;7.90;99.90;;;;;;4822940;29;20060;-86
2021/12/17 02:53:59;;;;;;;4.70;2.97;;;7.90;99.90;;;;;;5375566;24;20029;-85
2021/12/17 02:56:56;;;;;;;6.80;3.75;;;7.90;99.90;;;;;;5535520;24;20035;31
2021/12/17 02:59:24;;;;;;;4.35;2.55;;;7.80;99.90;;;;;;4653851;24;20100;-87
2021/12/17 03:01:50;;;;;;;3.85;2.42;;;7.90;99.90;;;;;;4828365;29;20056;-86
2021/12/17 03:04:18;;;;;;;3.42;1.98;;;7.90;99.90;;;;;;4828767;29;20052;-86
2021/12/17 03:06:45;;;;;;;3.05;1.92;;;7.90;99.90;;;;;;4827952;29;20053;-87
2021/12/17 03:09:11;;;;;;;4.18;1.80;;;7.90;99.90;;;;;;4813979;29;20045;-86
2021/12/17 03:11:38;;;;;;;1.85;1.20;;;7.80;99.90;;;;;;4845227;29;20490;-86
2021/12/17 03:14:05;;;;;;;2.08;1.13;;;7.80;99.90;;;;;;4830459;29;20050;-83
2021/12/17 03:16:55;;;;;;;3.60;2.28;;;7.90;99.90;;;;;;4830461;29;20046;-85
2021/12/17 03:24:56;;;;;;;2.28;1.40;;;7.80;99.90;;;;;;4834349;29;20083;-82
2021/12/17 03:27:22;;;;;;;2.50;1.55;;;7.80;99.90;;;;;;4845525;29;20061;-80
2021/12/17 03:29:48;;;;;;;1.70;1.13;;;7.90;99.90;;;;;;4845142;29;20483;-82
2021/12/17 03:32:13;;;;;;;1.73;1.30;;;7.90;99.90;;;;;;4830564;29;20072;-82
2021/12/17 03:34:39;;;;;;;2.03;1.20;;;7.90;99.90;;;;;;4831083;29;20048;-82
2021/12/17 03:37:05;;;;;;;2.75;1.80;;;7.90;99.90;;;;;;4846290;29;20397;-82
2021/12/17 03:39:31;;;;;;;3.60;2.17;;;7.90;99.90;;;;;;4800556;29;20073;-82
2021/12/17 03:41:57;;;;;;;2.63;1.70;;;7.90;99.90;;;;;;4830763;29;20046;-82
2021/12/17 03:44:23;;;;;;;1.92;1.42;;;7.90;99.90;;;;;;4827353;29;20049;-81
2021/12/17 03:46:51;;;;;;;1.70;1.20;;;8.00;99.90;;;;;;4842055;29;20053;-81
2021/12/17 03:49:18;;;;;;;2.00;1.13;;;7.90;99.90;;;;;;4840840;29;20128;-78
2021/12/17 03:52:04;;;;;;;1.13;0.75;;;7.90;99.90;;;;;;4826569;29;20054;-79
2021/12/17 03:54:32;;;;;;;1.60;1.17;;;7.90;99.90;;;;;;4840899;29;20448;-79
2021/12/17 03:56:59;;;;;;;1.85;1.20;;;7.90;99.90;;;;;;4811159;29;20057;-79
2021/12/17 03:59:24;;;;;;;1.90;1.25;;;7.90;99.90;;;;;;4845241;29;20061;-79
2021/12/17 04:01:50;;;;;;;2.20;1.40;;;7.90;99.90;;;;;;4847558;29;20055;-79
2021/12/17 04:04:16;;;;;;;2.22;1.52;;;7.90;99.90;;;;;;4827184;29;20487;-79
2021/12/17 04:06:41;;;;;;;1.73;1.30;;;7.90;99.90;;;;;;4795953;29;20391;-79
2021/12/17 04:09:08;;;;;;;2.03;1.10;;;8.00;99.90;;;;;;4807727;29;20598;-80
2021/12/17 04:11:34;;;;;;;2.42;1.52;;;8.00;99.90;;;;;;4832656;29;20563;-80
2021/12/17 04:14:01;;;;;;;2.85;1.38;;;8.00;99.90;;;;;;4837795;29;20125;-80
2021/12/17 04:16:30;;;;;;;2.50;1.20;;;8.00;99.90;;;;;;4818983;29;20041;-81
2021/12/17 04:18:57;;;;;;;1.63;0.93;;;7.90;99.90;;;;;;4826232;29;20052;-80
2021/12/17 04:21:23;;;;;;;1.58;1.08;;;8.00;99.90;;;;;;4813037;29;20058;-80
2021/12/17 04:23:50;;;;;;;1.52;1.00;;;7.90;99.90;;;;;;4823795;29;20045;-80
2021/12/17 04:26:17;;;;;;;2.78;1.70;;;8.00;99.90;;;;;;4828969;29;20479;-80
2021/12/17 04:28:47;;;;;;;3.17;1.90;;;7.90;99.90;;;;;;4825073;29;20050;-79
2021/12/17 04:31:14;;;;;;;4.20;3.08;;;7.90;99.90;;;;;;4805370;29;20053;-80
2021/12/17 04:33:42;;;;;;;5.53;3.75;;;7.90;99.90;;;;;;4849407;29;20053;-80
2021/12/17 04:36:10;;;;;;;5.57;3.83;;;7.90;99.90;;;;;;4844650;29;20422;-80
2021/12/17 04:38:36;;;;;;;7.90;5.18;;;7.90;99.90;;;;;;4818722;29;20068;-79
2021/12/17 04:46:29;;;;;;;6.53;4.43;;;7.90;99.90;;;;;;4844112;29;20053;-80
2021/12/17 04:59:45;;;;;;;5.68;4.43;;;7.90;99.90;;;;;;4844154;29;20057;-80
2021/12/17 05:02:10;;;;;;;6.05;4.70;;;7.90;99.90;;;;;;4843656;29;20057;-79
2021/12/17 05:04:37;;;;;;;4.10;3.20;;;7.90;99.90;;;;;;4826608;29;20045;-80
2021/12/17 05:07:06;;;;;;;3.85;2.90;;;7.90;99.90;;;;;;4825505;29;20050;-80
2021/12/17 05:09:47;;;;;;;5.22;3.65;;;7.90;99.90;;;;;;4843865;29;20057;-79
2021/12/17 05:20:40;;;;;;;3.97;2.90;;;7.90;99.90;;;;;;4825735;29;20057;-80
2021/12/17 05:23:05;;;;;;;5.05;3.58;;;7.90;99.90;;;;;;4825896;29;20057;-80
2021/12/17 05:25:31;;;;;;;5.40;3.70;;;7.90;99.90;;;;;;4826025;29;20046;-80
2021/12/17 05:28:01;;;;;;;4.50;3.42;;;7.80;99.90;;;;;;4810105;29;20132;-80
2021/12/17 05:30:32;;;;;;;4.28;3.20;;;7.80;99.90;;;;;;4810405;29;20038;-80
2021/12/17 05:32:58;;;;;;;6.50;4.63;;;7.90;99.90;;;;;;4825643;29;20046;-80
2021/12/17 05:35:25;;;;;;;5.90;4.13;;;7.90;99.90;;;;;;4825615;29;20422;-80
2021/12/17 05:37:50;;;;;;;6.82;4.50;;;7.80;99.90;;;;;;4825388;29;20046;-80
2021/12/17 05:40:16;;;;;;;6.78;4.88;;;7.90;99.90;;;;;;4840524;29;20103;-79
2021/12/17 05:42:43;;;;;;;6.63;4.38;;;7.90;99.90;;;;;;4825530;29;20046;-79
2021/12/17 05:45:22;;;;;;;5.20;3.38;;;7.90;99.90;;;;;;4824736;29;20046;-80
2021/12/17 05:47:48;;;;;;;4.10;2.83;;;7.90;99.90;;;;;;4828552;29;20543;-80
2021/12/17 05:50:15;;;;;;;4.07;2.88;;;7.90;99.90;;;;;;4828118;29;20087;-80
2021/12/17 05:52:41;;;;;;;4.72;3.33;;;7.90;99.90;;;;;;4840734;29;20048;-80
2021/12/17 05:55:07;;;;;;;5.53;3.35;;;7.90;99.90;;;;;;4828892;29;20050;-81
2021/12/17 05:57:33;;;;;;;4.20;2.70;;;7.90;99.90;;;;;;4843472;29;20045;-80
2021/12/17 05:59:58;;;;;;;4.03;2.63;;;7.90;99.90;;;;;;4828032;29;20815;-80
2021/12/17 06:02:24;;;;;;;6.00;3.70;;;7.90;99.90;;;;;;4841746;29;20065;-80
2021/12/17 06:04:49;;;;;;;6.22;4.25;;;7.90;99.90;;;;;;4825033;29;20580;-80
2021/12/17 06:07:26;;;;;;;5.32;3.45;;;7.90;99.90;;;;;;4795176;29;20052;-80
2021/12/17 06:09:52;;;;;;;7.00;4.63;;;7.90;99.90;;;;;;4810097;29;20069;-80
2021/12/17 06:12:18;;;;;;;7.80;4.82;;;7.90;99.90;;;;;;4826433;29;20126;-81
2021/12/17 06:14:44;;;;;;;5.80;3.85;;;7.90;99.90;;;;;;4794562;29;20042;-79
2021/12/17 06:17:10;;;;;;;5.45;3.83;;;7.80;99.90;;;;;;4809973;29;20054;-79
2021/12/17 06:19:36;;;;;;;7.72;5.15;;;7.90;99.90;;;;;;4841953;29;20101;-79
2021/12/17 06:22:01;;;;;;;7.38;4.88;;;7.90;99.90;;;;;;4830863;29;20045;-79
2021/12/17 06:24:27;;;;;;;6.40;3.90;;;7.90;99.90;;;;;;4812439;29;20106;-79
2021/12/17 06:26:54;;;;;;;4.80;3.20;;;7.80;99.90;;;;;;4814930;29;20133;-80
2021/12/17 06:29:19;;;;;;;;;;;7.80;99.90;;;;;;4817328;29;20077;-81
2021/12/17 06:31:45;;;;;;;5.55;3.55;;;7.80;99.90;;;;;;4831789;29;19924;-80
2021/12/17 06:34:11;;;;;;;8.15;4.03;;;7.80;99.90;;;;;;4814027;29;20101;-80
2021/12/17 06:36:36;;;;;;;6.30;3.80;;;7.80;99.90;;;;;;4834843;29;20084;-80
2021/12/17 06:39:02;;;;;;;5.68;3.60;;;7.80;99.90;;;;;;4843146;29;20066;-80
2021/12/17 06:41:28;;;;;;;7.55;4.15;;;7.80;99.90;;;;;;4846248;29;20058;-79
2021/12/17 06:43:56;;;;;;;8.60;4.50;;;7.70;99.90;;;;;;4830725;29;20061;-79
2021/12/17 06:46:30;;;;;;;6.75;4.32;;;7.80;99.90;;;;;;4815984;29;20060;-79
2021/12/17 06:49:18;;;;;;;8.80;5.15;;;7.80;99.90;;;;;;4818589;29;20417;-80
2021/12/17 07:00:15;;;;;;;9.25;5.05;;;7.80;99.90;;;;;;4859086;29;20555;-80
2021/12/17 07:10:56;;;;;;;3.83;2.60;;;7.80;99.90;;;;;;4827621;29;20046;-81
2021/12/17 07:20:01;;;;;;;3.13;1.88;;;7.80;99.90;;;;;;4846117;29;20113;-80
2021/12/17 07:21:58;;;;;;;2.90;1.90;;;7.80;99.90;;;;;;4833007;29;20516;-81
2021/12/17 07:32:51;;;;;;;3.00;1.92;;;7.80;99.90;;;;;;4827192;29;20177;-80
2021/12/17 07:40:31;;;;;;;4.93;3.00;;;7.80;99.90;;;;;;4827300;29;20407;-80
2021/12/17 07:42:57;;;;;;;3.60;2.42;;;7.80;99.90;;;;;;4857353;29;20061;-80
2021/12/17 07:45:22;;;;;;;5.05;3.40;;;7.80;99.90;;;;;;4811982;29;20164;-80
2021/12/17 07:47:48;;;;;;;8.85;4.40;;;7.80;99.90;;;;;;4845250;29;20042;-80
2021/12/17 07:50:14;;;;;;;5.70;3.60;;;7.80;99.90;;;;;;4811799;29;20056;-81
2021/12/17 07:52:40;;;;;;;6.22;3.65;;;7.80;99.90;;;;;;4827296;29;20145;-81
2021/12/17 07:55:06;;;;;;;5.22;3.20;;;7.80;99.90;;;;;;4812332;29;20494;-81
2021/12/17 07:57:32;;;;;;;4.85;2.90;;;7.80;99.90;;;;;;4799162;29;20487;-80
2021/12/17 07:59:57;;;;;;;5.68;3.70;;;7.90;99.90;;;;;;4829834;29;20128;-80
2021/12/17 08:02:23;;;;;;;4.80;3.10;;;7.90;99.90;;;;;;4843376;29;20057;-80
2021/12/17 08:04:49;;;;;;;4.45;2.85;;;7.90;99.90;;;;;;4857146;29;20080;-80
2021/12/17 08:07:14;;;;;;;4.07;2.47;;;7.90;99.90;;;;;;4826405;29;20053;-79
2021/12/17 08:09:41;;;;;;;4.10;2.60;;;8.00;99.90;;;;;;4811421;29;20340;-80
2021/12/17 08:12:09;;;;;;;3.75;2.45;;;7.90;99.90;;;;;;4813469;29;20498;-80
2021/12/17 08:14:35;;;;;;;4.35;2.60;;;7.90;99.90;;;;;;4816439;29;20037;-81
2021/12/17 08:27:44;;;;;;;3.72;2.45;;;8.00;99.90;;;;;;4845183;29;20144;-81
2021/12/17 08:32:40;;;;;;;4.05;2.00;;;8.00;99.90;;;;;;4829924;29;20053;-81
2021/12/17 08:35:07;;;;;;;3.60;2.22;;;8.00;99.90;;;;;;4844750;29;20049;-81
2021/12/17 08:37:33;;;;;;;5.85;3.55;;;8.00;99.90;;;;;;4841536;29;20110;-81
2021/12/17 08:39:59;;;;;;;7.50;3.67;;;8.00;99.90;;;;;;4840947;29;20050;-81
2021/12/17 08:42:26;;;;;;;5.90;3.28;;;8.00;99.90;;;;;;4826398;29;20045;-81
2021/12/17 08:44:52;;;;;;;6.30;3.75;;;8.10;99.90;;;;;;4842886;29;20050;-81
2021/12/17 08:47:18;;;;;;;5.25;3.17;;;8.10;99.90;;;;;;4813087;29;20124;-82
2021/12/17 08:49:44;;;;;;;5.35;3.45;;;8.10;99.90;;;;;;4859585;29;20049;-81
2021/12/17 08:52:13;;;;;;;7.18;4.28;;;8.20;99.90;;;;;;4820571;29;20514;-81
2021/12/17 08:54:39;;;;;;;5.75;3.70;;;8.20;99.90;;;;;;4796674;29;20425;-81
2021/12/17 08:57:05;;;;;;;6.25;3.50;;;8.20;99.90;;;;;;4841131;29;20038;-81
2021/12/17 08:59:31;;;;;;;6.00;3.83;;;8.20;99.90;;;;;;4856837;29;20515;-82
2021/12/17 09:01:57;;;;;;;6.45;3.95;;;8.30;99.90;;;;;;4839942;29;20049;-81
2021/12/17 09:04:27;;;;;;;5.10;3.78;;;8.30;99.90;;;;;;4826151;29;20132;-81
2021/12/17 09:06:53;;;;;;;8.48;5.15;;;8.30;99.90;;;;;;4827426;29;20045;-81
2021/12/17 09:09:21;;;;;;;7.53;4.97;;;8.30;99.90;;;;;;4838167;29;20050;-81
2021/12/17 09:11:47;;;;;;;5.78;3.50;;;8.30;99.90;;;;;;4843237;29;20077;-80
2021/12/17 09:14:13;;;;;;;5.25;3.80;;;8.40;99.90;;;;;;4841652;29;20610;-81
2021/12/17 09:16:38;;;;;;;5.18;3.00;;;8.40;99.90;;;;;;4831547;29;20143;-81
2021/12/17 09:19:05;;;;;;;7.07;4.68;;;8.40;99.90;;;;;;4810235;29;20054;-80
2021/12/17 09:21:31;;;;;;;5.60;3.85;;;8.40;99.90;;;;;;4825311;29;20072;-81
2021/12/17 09:23:57;;;;;;;5.60;3.60;;;8.40;99.90;;;;;;4840816;29;20042;-81
2021/12/17 09:26:23;;;;;;;5.63;3.40;;;8.50;99.90;;;;;;4856721;29;20050;-79
2021/12/17 09:28:50;;;;;;;5.90;3.53;;;8.50;99.90;;;;;;4825740;29;20040;-79
2021/12/17 09:31:16;;;;;;;5.90;3.80;;;8.50;99.90;;;;;;4841612;29;20045;-80
2021/12/17 09:33:45;;;;;;;6.25;3.95;;;8.50;99.90;;;;;;4821738;29;20041;-79
2021/12/17 09:36:11;;;;;;;9.85;4.38;;;8.60;99.90;;;;;;4839188;29;20029;-79
2021/12/17 09:38:37;;;;;;;5.72;3.38;;;8.60;99.90;;;;;;4818969;29;20042;-79
2021/12/17 09:41:03;;;;;;;5.30;3.10;;;8.60;99.90;;;;;;4839961;29;20371;-79
2021/12/17 09:43:30;;;;;;;;;;;8.60;99.90;;;;;;4842483;29;20060;-79
2021/12/17 09:45:56;;;;;;;5.60;3.17;;;8.70;99.90;;;;;;4842542;29;19920;-79
2021/12/17 09:48:23;;;;;;;7.38;4.22;;;8.70;99.90;;;;;;4826871;29;20053;-79
2021/12/17 09:50:49;;;;;;;5.53;3.72;;;8.70;99.90;;;;;;4827684;29;20060;-78
2021/12/17 09:53:15;;;;;;;5.63;3.60;;;8.70;99.90;;;;;;4827730;29;20064;-79
2021/12/17 09:55:41;;;;;;;6.07;3.90;;;8.70;99.90;;;;;;4827652;29;20376;-79
2021/12/17 09:58:07;;;;;;;6.40;3.42;;;8.80;99.90;;;;;;4842360;29;20066;-79
2021/12/17 10:00:33;;;;;;;5.13;3.30;;;8.80;99.90;;;;;;4826097;29;20049;-79
2021/12/17 10:02:59;;;;;;;5.15;3.47;;;8.80;99.90;;;;;;4818568;29;20448;-79
2021/12/17 10:05:34;;;;;;;4.85;3.20;;;8.70;99.90;;;;;;4823669;29;20155;-78
2021/12/17 10:08:15;;;;;;;6.05;3.22;;;8.80;99.90;;;;;;4812892;29;20226;-78
2021/12/17 10:10:45;;;;;;;6.05;3.47;;;8.80;99.90;;;;;;4838313;29;20042;-78
2021/12/17 10:13:20;;;;;;;4.32;2.90;;;8.80;99.90;;;;;;4822333;29;20058;-79
2021/12/17 10:15:48;;;;;;;5.78;3.58;;;8.80;99.90;;;;;;4825220;29;20049;-79
2021/12/17 10:18:15;;;;;;;4.82;3.05;;;8.80;99.90;;;;;;4826757;29;20137;-78
2021/12/17 10:21:06;;;;;;;4.10;2.67;;;8.90;99.90;;;;;;4836463;29;20061;-79
2021/12/17 10:23:32;;;;;;;5.15;3.15;;;8.80;99.90;;;;;;4823781;29;20149;-78
2021/12/17 10:25:59;;;;;;;;;;;8.90;99.90;;;;;;4809121;29;20138;-81
2021/12/17 10:28:25;;;;;;;5.93;3.53;;;8.90;99.90;;;;;;4825932;29;19920;-80
2021/12/17 10:30:53;;;;;;;5.63;3.65;;;8.90;99.90;;;;;;4841360;29;20414;-80
2021/12/17 10:33:23;;;;;;;6.03;3.67;;;8.80;99.90;;;;;;4840815;29;20041;-82
2021/12/17 10:35:51;;;;;;;6.53;4.13;;;8.90;99.90;;;;;;4839736;29;20066;-81
2021/12/17 10:38:22;;;;;;;7.03;4.05;;;8.90;99.90;;;;;;4822739;29;20045;-81
2021/12/17 10:41:12;;;;;;;5.97;3.88;;;8.90;99.90;;;;;;4827631;29;20109;-81
2021/12/17 10:43:44;;;;;;;6.78;3.90;;;8.90;99.90;;;;;;4827808;29;20053;-82
2021/12/17 10:46:29;;;;;;;4.75;2.90;;;8.90;99.90;;;;;;4843249;29;20057;-82
2021/12/17 10:51:30;;;;;;;5.45;3.92;;;9.00;99.90;;;;;;4842696;29;20347;-80
2021/12/17 10:54:04;;;;;;;6.10;3.95;;;9.00;99.90;;;;;;4841369;29;20407;-79
2021/12/17 10:56:33;;;;;;;4.82;3.33;;;9.10;99.90;;;;;;4826819;29;20046;-79
2021/12/17 10:59:11;;;;;;;4.93;3.35;;;9.10;99.90;;;;;;4841254;29;20411;-79
2021/12/17 11:01:37;;;;;;;5.45;3.72;;;9.10;99.90;;;;;;4826201;29;20049;-78
2021/12/17 11:04:07;;;;;;;3.63;2.80;;;9.10;99.90;;;;;;4838003;29;20149;-79
2021/12/17 11:06:47;;;;;;;4.47;2.70;;;9.20;99.90;;;;;;4826764;29;20399;-79
2021/12/17 11:09:37;;;;;;;4.45;3.30;;;9.20;99.90;;;;;;4812115;29;20129;-79
2021/12/17 11:12:17;;;;;;;6.00;3.17;;;9.20;99.90;;;;;;4845262;29;20051;-80
2021/12/17 11:14:45;;;;;;;3.50;2.92;;;9.20;99.90;;;;;;4863601;29;20185;-76
2021/12/17 11:17:17;;;;;;;3.75;2.90;;;9.20;99.90;;;;;;4863696;29;20072;-79
2021/12/17 11:19:43;;;;;;;3.20;2.63;;;9.30;99.90;;;;;;4862824;29;20056;-80
2021/12/17 11:22:09;;;;;;;3.83;3.05;;;9.30;99.90;;;;;;4831913;29;20049;-80
2021/12/17 11:24:37;;;;;;;4.00;2.63;;;9.30;99.90;;;;;;4862589;29;20037;-79
2021/12/17 11:27:07;;;;;;;2.65;2.25;;;9.20;99.90;;;;;;4862919;29;20048;-80
2021/12/17 11:29:34;;;;;;;3.47;2.50;;;9.30;99.90;;;;;;4847405;29;20072;-80
2021/12/17 11:32:02;;;;;;;3.58;2.90;;;9.30;99.90;;;;;;4862243;29;20044;-79
2021/12/17 11:34:30;;;;;;;4.63;2.80;;;9.30;99.90;;;;;;4847133;29;20053;-79
2021/12/17 11:36:58;;;;;;;3.28;2.67;;;9.30;99.90;;;;;;4862402;29;20053;-80
2021/12/17 11:39:31;;;;;;;4.00;2.88;;;9.30;99.90;;;;;;4847198;29;20495;-80
2021/12/17 11:42:18;;;;;;;3.50;2.85;;;9.30;99.90;;;;;;4862039;29;20041;-80
2021/12/17 11:44:53;;;;;;;2.92;2.63;;;9.30;99.90;;;;;;4846718;29;20045;-80
2021/12/17 11:47:19;;;;;;;2.97;2.50;;;9.30;99.90;;;;;;4846855;29;20052;-80
2021/12/17 11:49:50;;;;;;;3.10;2.10;;;9.30;99.90;;;;;;4847040;29;20083;-81
2021/12/17 11:52:40;;;;;;;3.83;2.25;;;9.40;99.90;;;;;;4847059;29;20048;-81
2021/12/17 11:55:34;;;;;;;4.30;2.20;;;9.40;99.90;;;;;;4862049;29;20049;-80
2021/12/17 11:58:07;;;;;;;2.10;1.67;;;9.40;99.90;;;;;;4859563;29;20394;-79
2021/12/17 12:00:42;;;;;;;4.03;3.08;;;9.40;99.90;;;;;;4861991;29;20101;-80
2021/12/17 12:03:21;;;;;;;4.88;2.97;;;9.30;99.90;;;;;;4861680;29;20049;-79
2021/12/17 12:05:50;;;;;;;4.03;3.10;;;9.40;99.90;;;;;;4862081;29;20091;-80
2021/12/17 12:08:25;;;;;;;4.55;2.90;;;9.40;99.90;;;;;;4861915;29;20049;-79
2021/12/17 12:11:10;;;;;;;3.10;2.78;;;9.40;99.90;;;;;;4861804;29;20080;-80
2021/12/17 12:13:43;;;;;;;2.58;2.08;;;9.40;99.90;;;;;;4846330;29;20055;-79
2021/12/17 12:16:15;;;;;;;2.78;2.47;;;9.30;99.90;;;;;;4860804;29;20053;-80
2021/12/17 12:18:46;;;;;;;3.15;2.50;;;9.40;99.90;;;;;;4861561;29;20048;-80
2021/12/17 12:21:16;;;;;;;3.25;2.35;;;9.40;99.90;;;;;;4846451;29;20041;-82
2021/12/17 12:23:44;;;;;;;9.80;2.92;;;9.30;99.90;;;;;;4846404;29;20053;-80
2021/12/17 12:26:17;;;;;;;5.35;2.58;;;9.40;99.90;;;;;;4861600;29;20041;-82
2021/12/17 12:28:48;;;;;;;3.35;2.35;;;9.30;99.90;;;;;;4847537;29;20147;-83
2021/12/17 12:31:36;;;;;;;3.45;2.65;;;9.30;99.90;;;;;;4848771;29;20121;-79
2021/12/17 12:34:08;;;;;;;3.97;2.50;;;9.30;99.90;;;;;;4843390;29;20089;-79
2021/12/17 12:36:55;;;;;;;3.22;2.55;;;9.30;99.90;;;;;;4842339;29;20064;-80
2021/12/17 12:39:27;;;;;;;2.88;2.25;;;9.30;99.90;;;;;;4825446;29;20056;-79
2021/12/17 12:42:31;;;;;;;2.53;2.10;;;9.30;99.90;;;;;;4825186;29;20049;-79
2021/12/17 12:44:57;;;;;;;2.97;2.50;;;9.30;99.90;;;;;;4830719;29;20085;-79
2021/12/17 12:47:26;;;;;;;2.80;2.47;;;9.30;99.90;;;;;;4833107;29;20474;-79
2021/12/17 12:50:11;;;;;;;3.80;3.17;;;9.30;99.90;;;;;;4817645;29;20045;-78
2021/12/17 12:52:45;;;;;;;3.25;2.95;;;9.30;99.90;;;;;;4838148;29;20097;-80
2021/12/17 12:55:28;;;;;;;3.50;2.30;;;9.30;99.90;;;;;;4825987;29;20056;-80
2021/12/17 12:58:13;;;;;;;3.65;3.13;;;9.30;99.90;;;;;;4839141;29;20052;-80
2021/12/17 13:00:54;;;;;;;3.50;2.50;;;9.30;99.90;;;;;;4797523;29;20074;-80
2021/12/17 13:03:26;;;;;;;3.13;2.65;;;9.30;99.90;;;;;;4788006;29;20042;-81
2021/12/17 13:05:53;;;;;;;2.67;2.25;;;9.30;99.90;;;;;;4803012;29;20144;-80
2021/12/17 13:08:21;;;;;;;3.63;2.90;;;9.40;99.90;;;;;;4812454;29;20042;-80
2021/12/17 13:10:50;;;;;;;3.40;2.80;;;9.30;99.90;;;;;;4821771;29;20085;-80
2021/12/17 13:16:13;;;;;;;2.88;2.25;;;9.40;99.90;;;;;;4816441;29;20492;-78
2021/12/17 13:26:38;;;;;;;2.97;2.30;;;9.40;99.90;;;;;;4816728;29;20057;-81
2021/12/17 13:29:11;;;;;;;2.83;2.40;;;9.40;99.90;;;;;;4809821;29;20492;-81
2021/12/17 13:31:40;;;;;;;2.35;1.90;;;9.40;99.90;;;;;;4825057;29;20048;-82
2021/12/17 13:34:11;;;;;;;2.97;2.10;;;9.40;99.90;;;;;;4827892;29;20054;-82
2021/12/17 13:36:42;;;;;;;2.20;2.00;;;9.30;99.90;;;;;;4805798;29;20550;-82
2021/12/17 13:39:11;;;;;;;3.70;1.90;;;9.40;99.90;;;;;;4804701;29;20042;-82
2021/12/17 13:41:40;;;;;;;3.35;2.28;;;9.40;99.90;;;;;;4803803;29;20460;-82
2021/12/17 13:44:26;;;;;;;3.40;2.40;;;9.30;99.90;;;;;;4814436;29;20099;-82
2021/12/17 13:47:06;;;;;;;2.80;2.33;;;9.40;99.90;;;;;;4820781;29;20098;-83
2021/12/17 13:49:32;;;;;;;2.30;2.10;;;9.40;99.90;;;;;;4798435;29;20049;-84
2021/12/17 13:51:58;;;;;;;3.05;2.50;;;9.40;99.90;;;;;;4823279;29;20117;-82
2021/12/17 13:54:24;;;;;;;2.70;2.30;;;9.40;99.90;;;;;;4822557;29;20137;-82
2021/12/17 13:57:03;;;;;;;2.40;2.10;;;9.40;99.90;;;;;;4817513;29;20046;-82
2021/12/17 13:59:35;;;;;;;3.30;2.13;;;9.40;99.90;;;;;;4819486;29;20096;-82
2021/12/17 14:02:32;;;;;;;1.90;1.70;;;9.40;99.90;;;;;;4824728;29;20089;-83
2021/12/17 14:05:09;;;;;;;2.83;2.22;;;9.30;99.90;;;;;;4836147;29;20053;-83
2021/12/17 14:07:38;;;;;;;2.60;2.03;;;9.30;99.90;;;;;;4809985;29;20045;-81
2021/12/17 14:10:09;;;;;;;3.65;2.15;;;9.30;99.90;;;;;;4807087;29;20123;-82
2021/12/17 14:12:41;;;;;;;3.15;2.88;;;9.40;99.90;;;;;;4795978;29;20389;-82
2021/12/17 14:15:08;;;;;;;2.92;2.42;;;9.40;99.90;;;;;;4813742;29;20057;-82
2021/12/17 14:17:42;;;;;;;3.03;2.50;;;9.40;99.90;;;;;;4819428;29;20050;-82
2021/12/17 14:20:17;;;;;;;2.80;2.30;;;9.30;99.90;;;;;;4827402;29;20137;-82
2021/12/17 14:22:45;;;;;;;3.15;2.65;;;9.30;99.90;;;;;;4839133;29;20081;-82
2021/12/17 14:25:39;;;;;;;4.03;3.00;;;9.30;99.90;;;;;;4809335;29;20057;-82
2021/12/17 14:28:17;;;;;;;4.10;3.25;;;9.30;99.90;;;;;;4809553;29;20131;-82
2021/12/17 14:30:56;;;;;;;4.55;3.40;;;9.30;99.90;;;;;;4828565;29;20049;-82
2021/12/17 14:33:45;;;;;;;5.40;2.85;;;9.30;99.90;;;;;;4801645;29;20050;-82
2021/12/17 14:36:16;;;;;;;4.55;3.17;;;9.30;99.90;;;;;;4794111;29;20096;-82
2021/12/17 14:38:47;;;;;;;5.15;3.20;;;9.30;99.90;;;;;;4826851;29;20055;-82
2021/12/17 14:41:23;;;;;;;3.15;2.67;;;9.30;99.90;;;;;;4836378;29;20057;-81
2021/12/17 14:43:59;;;;;;;3.55;2.70;;;9.30;99.90;;;;;;4806345;29;20077;-81
2021/12/17 14:46:31;;;;;;;4.13;2.90;;;9.30;99.90;;;;;;4824301;29;20096;-83
2021/12/17 14:49:30;;;;;;;2.92;2.22;;;9.30;99.90;;;;;;4827700;29;20094;-83
2021/12/17 15:00:47;;;;;;;3.00;2.67;;;9.30;99.90;;;;;;4828972;29;20060;-82
2021/12/17 15:06:01;;;;;;;2.55;2.35;;;9.20;99.90;;;;;;4846505;29;20056;-82
2021/12/17 15:08:29;;;;;;;3.85;3.45;;;9.20;99.90;;;;;;4831295;29;20169;-83
2021/12/17 15:10:55;;;;;;;4.60;3.47;;;9.20;99.90;;;;;;4831096;29;20503;-82
2021/12/17 15:13:21;;;;;;;5.35;3.67;;;9.20;99.90;;;;;;4846473;29;20396;-82
2021/12/17 15:15:47;;;;;;;;;;;9.20;99.90;;;;;;4831337;29;20176;-82
2021/12/17 15:18:16;;;;;;;3.58;2.85;;;9.20;99.90;;;;;;4846680;29;20023;-82
2021/12/17 15:20:44;;;;;;;3.10;2.78;;;9.20;99.90;;;;;;4862869;29;20050;-82
2021/12/17 15:23:11;;;;;;;2.88;2.63;;;9.20;99.90;;;;;;4830906;29;20049;-82
2021/12/17 15:25:39;;;;;;;4.72;3.70;;;9.20;99.90;;;;;;4846655;29;20041;-82
2021/12/17 15:28:06;;;;;;;4.28;3.83;;;9.10;99.90;;;;;;4849055;29;20092;-82
2021/12/17 15:30:34;;;;;;;5.13;3.55;;;9.10;99.90;;;;;;4831713;29;20049;-82
2021/12/17 15:33:00;;;;;;;4.32;3.28;;;9.10;99.90;;;;;;4862936;29;20068;-81
2021/12/17 15:35:27;;;;;;;3.40;3.00;;;9.10;99.90;;;;;;4830690;29;20046;-82
2021/12/17 15:37:56;;;;;;;4.55;3.40;;;9.10;99.90;;;;;;4841278;29;20049;-82
2021/12/17 15:40:22;;;;;;;3.13;2.78;;;9.10;99.90;;;;;;4830852;29;20076;-82
2021/12/17 15:42:48;;;;;;;3.28;2.97;;;9.00;99.90;;;;;;4845661;29;20403;-82
2021/12/17 15:45:15;;;;;;;3.80;3.20;;;9.00;99.90;;;;;;4846108;29;20456;-82
2021/12/17 15:47:40;;;;;;;;;;;9.00;99.90;;;;;;4862987;29;20049;-82
2021/12/17 15:50:08;;;;;;;4.32;3.47;;;9.00;99.90;;;;;;4830305;29;20114;-82
2021/12/17 15:52:36;;;;;;;4.05;3.38;;;9.00;99.90;;;;;;4830729;29;20506;-82
2021/12/17 15:55:05;;;;;;;4.07;3.55;;;9.00;99.90;;;;;;4831149;29;20403;-82
2021/12/17 15:57:30;;;;;;;4.32;3.30;;;9.00;99.90;;;;;;4830552;29;20109;-82
2021/12/17 15:59:56;;;;;;;5.85;4.13;;;9.00;99.90;;;;;;4826611;29;20050;-82
2021/12/17 16:02:22;;;;;;;5.82;3.80;;;9.00;99.90;;;;;;4827515;29;20084;-82
2021/12/17 16:04:48;;;;;;;5.38;3.97;;;8.90;99.90;;;;;;4827583;29;20065;-82
2021/12/17 16:07:15;;;;;;;5.57;4.40;;;8.90;99.90;;;;;;4812584;29;20423;-82
2021/12/17 16:22:45;;;;;;;7.55;4.53;;;8.80;99.90;;;;;;4826964;29;20058;-82
2021/12/17 16:25:10;;;;;;;7.53;4.35;;;8.80;99.90;;;;;;4803956;29;20042;-78
2021/12/17 16:27:36;;;;;;;6.93;4.28;;;8.80;99.90;;;;;;4813524;29;20046;-80
2021/12/17 16:30:03;;;;;;;7.32;5.10;;;8.80;99.90;;;;;;4792704;29;20069;-78
2021/12/17 16:32:29;;;;;;;7.07;4.57;;;8.70;99.90;;;;;;4806801;29;20072;-80
2021/12/17 16:34:55;;;;;;;6.47;4.43;;;8.70;99.90;;;;;;4803208;29;20499;-81
2021/12/17 16:37:21;;;;;;;5.53;3.58;;;8.70;99.90;;;;;;4790585;29;20130;-81